Time;durP1;ratioP1;P1;durP2;ratioP2;P2;SDS_P1;SDS_P2;PMS_P1;PMS_P2;Temp;Humidity;BMP_temperature;BMP_pressure;BME280_temperature;BME280_humidity;BME280_pressure;Samples;Min_cycle;Max_cycle;Signal;HPM_P1;HPM_P2
2023/05/08 00:00:37;;;;;;;4.90;4.20;;;16.20;99.90;;;;;;5012618;28;20255;-70
2023/05/08 00:03:03;;;;;;;6.90;5.10;;;16.20;99.90;;;;;;5012619;28;20843;-70
2023/05/08 00:05:29;;;;;;;7.10;4.47;;;16.20;99.90;;;;;;5012342;28;20813;-70
2023/05/08 00:08:00;;;;;;;4.00;3.70;;;16.20;99.90;;;;;;5012345;28;20410;-70
2023/05/08 00:10:26;;;;;;;5.60;4.50;;;16.20;99.90;;;;;;5012528;28;20408;-70
2023/05/08 00:12:52;;;;;;;6.27;5.20;;;16.20;99.90;;;;;;5012493;28;20427;-70
2023/05/08 00:15:18;;;;;;;5.23;4.70;;;16.20;99.90;;;;;;5012365;28;20411;-70
2023/05/08 00:17:43;;;;;;;6.00;5.13;;;16.20;99.90;;;;;;5027305;28;20246;-70
2023/05/08 00:20:09;;;;;;;5.03;4.53;;;16.20;99.90;;;;;;5012404;28;20176;-70
2023/05/08 00:22:35;;;;;;;4.83;4.27;;;16.20;99.90;;;;;;5027533;28;20583;-70
2023/05/08 00:25:00;;;;;;;10.00;4.53;;;16.10;99.90;;;;;;5012265;28;21030;-70
2023/05/08 00:27:26;;;;;;;4.70;3.63;;;16.10;99.90;;;;;;5011974;28;20522;-70
2023/05/08 00:29:51;;;;;;;3.93;3.20;;;16.10;99.90;;;;;;5012102;28;20247;-70
2023/05/08 00:32:17;;;;;;;4.23;3.83;;;16.10;99.90;;;;;;5012052;28;20222;-70
2023/05/08 00:34:42;;;;;;;6.00;4.47;;;16.00;99.90;;;;;;5012144;28;20177;-70
2023/05/08 00:37:08;;;;;;;4.83;4.43;;;16.00;99.90;;;;;;5011755;28;20196;-70
2023/05/08 00:39:34;;;;;;;4.40;4.00;;;16.00;99.90;;;;;;5012189;28;20176;-70
2023/05/08 00:41:59;;;;;;;7.37;4.40;;;16.00;99.90;;;;;;5012016;28;20218;-70
2023/05/08 00:44:25;;;;;;;5.50;5.00;;;16.00;99.90;;;;;;5011930;28;20164;-70
2023/05/08 00:46:51;;;;;;;5.93;5.30;;;16.00;99.90;;;;;;5011778;28;20196;-70
2023/05/08 00:49:17;;;;;;;5.60;4.23;;;16.00;99.90;;;;;;5012057;28;20403;-70
2023/05/08 00:51:45;;;;;;;4.37;3.97;;;16.00;99.90;;;;;;5012077;28;20160;-70
2023/05/08 00:54:11;;;;;;;4.60;4.20;;;15.90;99.90;;;;;;5011980;28;20391;-70
2023/05/08 00:56:37;;;;;;;7.37;5.30;;;15.90;99.90;;;;;;5010648;28;20956;-70
2023/05/08 00:59:15;;;;;;;5.23;4.70;;;15.90;99.90;;;;;;5011862;28;20430;-70
2023/05/08 01:01:42;;;;;;;5.40;4.90;;;15.90;99.90;;;;;;5011937;28;20391;-70
2023/05/08 01:04:07;;;;;;;4.93;4.30;;;15.80;99.90;;;;;;5012632;28;20479;-70
2023/05/08 01:06:33;;;;;;;5.27;4.40;;;15.70;99.90;;;;;;5015735;28;20554;-70
2023/05/08 01:08:59;;;;;;;9.53;4.33;;;15.60;99.90;;;;;;5015562;28;20231;-70
2023/05/08 01:11:35;;;;;;;5.73;4.67;;;15.60;99.90;;;;;;5030911;28;20195;-70
2023/05/08 01:14:12;;;;;;;4.60;4.20;;;15.60;99.90;;;;;;5015836;28;20403;-71
2023/05/08 01:17:05;;;;;;;4.73;4.30;;;15.60;99.90;;;;;;5015677;28;20481;-70
2023/05/08 01:19:52;;;;;;;5.43;4.30;;;15.60;99.90;;;;;;5015631;28;20411;-70
2023/05/08 01:22:54;;;;;;;5.03;4.53;;;15.60;99.90;;;;;;5014263;28;20415;-70
2023/05/08 01:26:04;;;;;;;5.13;3.93;;;15.60;99.90;;;;;;5015413;28;20457;-70
2023/05/08 01:28:41;;;;;;;4.30;3.70;;;15.60;99.90;;;;;;5015117;28;20406;-70
2023/05/08 01:31:15;;;;;;;5.53;4.10;;;15.60;99.90;;;;;;5015404;28;20457;-70
2023/05/08 01:33:43;;;;;;;5.47;4.90;;;15.60;99.90;;;;;;5014131;28;20469;-70
2023/05/08 01:36:19;;;;;;;6.30;5.70;;;15.60;99.90;;;;;;5015249;28;20505;-70
2023/05/08 01:39:23;;;;;;;10.60;8.17;;;15.60;99.90;;;;;;5030179;28;20513;-70
2023/05/08 01:42:13;;;;;;;7.50;6.80;;;15.50;99.90;;;;;;4993287;28;20622;-70
2023/05/08 01:44:47;;;;;;;7.43;6.67;;;15.50;99.90;;;;;;5001767;28;20442;-70
2023/05/08 01:47:14;;;;;;;6.70;5.63;;;15.50;99.90;;;;;;5029925;28;20438;-70
2023/05/08 01:49:49;;;;;;;4.77;4.37;;;15.50;99.90;;;;;;5015048;28;20421;-70
2023/05/08 01:52:20;;;;;;;9.33;6.57;;;15.50;99.90;;;;;;5014976;28;20493;-70
2023/05/08 01:54:57;;;;;;;5.70;5.17;;;15.50;99.90;;;;;;5015109;28;20764;-70
2023/05/08 01:57:25;;;;;;;5.77;5.17;;;15.50;99.90;;;;;;5014671;28;20426;-70
2023/05/08 01:59:53;;;;;;;5.77;5.13;;;15.50;99.90;;;;;;5014849;28;20403;-70
2023/05/08 02:02:19;;;;;;;7.27;5.40;;;15.40;99.90;;;;;;5013718;28;20427;-70
2023/05/08 02:04:46;;;;;;;6.10;5.30;;;15.50;99.90;;;;;;5014695;28;20399;-70
2023/05/08 02:07:12;;;;;;;5.10;4.57;;;15.40;99.90;;;;;;5014493;28;20453;-70
2023/05/08 02:09:39;;;;;;;4.93;4.43;;;15.40;99.90;;;;;;5014838;28;20486;-70
2023/05/08 02:12:06;;;;;;;5.70;5.10;;;15.40;99.90;;;;;;5013156;28;20446;-70
2023/05/08 02:14:34;;;;;;;4.43;4.03;;;15.40;99.90;;;;;;5014638;28;20418;-70
2023/05/08 02:17:00;;;;;;;5.67;5.17;;;15.30;99.90;;;;;;5012928;28;20493;-70
2023/05/08 02:19:28;;;;;;;6.13;5.50;;;15.30;99.90;;;;;;5014623;28;20403;-70
2023/05/08 02:21:55;;;;;;;5.10;4.30;;;15.20;99.90;;;;;;5014481;28;20529;-70
2023/05/08 02:24:22;;;;;;;5.47;4.97;;;15.20;99.90;;;;;;5014569;28;20553;-70
2023/05/08 02:26:50;;;;;;;4.63;4.23;;;15.20;99.90;;;;;;5014250;28;20462;-70
2023/05/08 02:29:16;;;;;;;5.50;5.00;;;15.20;99.90;;;;;;5014368;28;20407;-70
2023/05/08 02:31:44;;;;;;;5.80;5.03;;;15.20;99.90;;;;;;5014355;28;20898;-70
2023/05/08 02:34:10;;;;;;;5.90;5.27;;;15.20;99.90;;;;;;5014212;28;20407;-70
2023/05/08 02:36:37;;;;;;;6.30;5.50;;;15.20;99.90;;;;;;5014177;28;20431;-73
2023/05/08 02:39:06;;;;;;;7.40;5.60;;;15.20;99.90;;;;;;5013934;28;20415;-73
2023/05/08 02:41:33;;;;;;;8.03;5.53;;;15.20;99.90;;;;;;5014196;28;20450;-71
2023/05/08 02:43:59;;;;;;;6.33;4.60;;;15.20;99.90;;;;;;5029161;28;20438;-70
2023/05/08 02:46:29;;;;;;;6.37;5.10;;;15.20;99.90;;;;;;5013783;28;20458;-70
2023/05/08 02:49:08;;;;;;;10.83;8.57;;;15.20;99.90;;;;;;5013630;28;20171;-70
2023/05/08 02:51:47;;;;;;;6.73;6.00;;;15.20;99.90;;;;;;5014041;28;20434;-70
2023/05/08 02:54:42;;;;;;;4.83;4.40;;;15.20;99.90;;;;;;5013892;28;20411;-70
2023/05/08 02:57:10;;;;;;;5.07;4.53;;;15.20;99.90;;;;;;5013429;28;20423;-70
2023/05/08 02:59:38;;;;;;;6.10;5.20;;;15.20;99.90;;;;;;5013780;28;20409;-70
2023/05/08 03:02:21;;;;;;;6.23;5.40;;;15.20;99.90;;;;;;5028899;28;20446;-70
2023/05/08 03:04:50;;;;;;;8.50;6.50;;;15.20;99.90;;;;;;5013546;28;20959;-70
2023/05/08 03:07:16;;;;;;;8.03;6.83;;;15.20;99.90;;;;;;5013352;28;20434;-70
2023/05/08 03:09:46;;;;;;;9.40;6.00;;;15.20;99.90;;;;;;5013573;28;20406;-70
2023/05/08 03:12:16;;;;;;;6.23;4.93;;;15.20;99.90;;;;;;5013635;28;20449;-70
2023/05/08 03:15:05;;;;;;;6.80;5.27;;;15.20;99.90;;;;;;5013572;28;20406;-70
2023/05/08 03:17:33;;;;;;;5.57;4.77;;;15.20;99.90;;;;;;5012971;28;20794;-70
2023/05/08 03:20:04;;;;;;;5.20;4.70;;;15.20;99.90;;;;;;5028856;28;20408;-70
2023/05/08 03:22:33;;;;;;;5.80;5.20;;;15.20;99.90;;;;;;5013535;28;20483;-70
2023/05/08 03:25:01;;;;;;;5.03;4.40;;;15.20;99.90;;;;;;5013487;28;20814;-70
2023/05/08 03:27:29;;;;;;;7.57;4.47;;;15.20;99.90;;;;;;5012533;28;20422;-70
2023/05/08 03:29:55;;;;;;;4.70;4.20;;;15.20;99.90;;;;;;5013236;28;20764;-70
2023/05/08 03:32:23;;;;;;;5.77;5.23;;;15.20;99.90;;;;;;5013303;28;20482;-70
2023/05/08 03:34:50;;;;;;;4.70;4.20;;;15.20;99.90;;;;;;5013153;28;20399;-70
2023/05/08 03:37:15;;;;;;;6.50;5.40;;;15.20;99.90;;;;;;5012710;28;20419;-70
2023/05/08 03:39:41;;;;;;;5.60;4.80;;;15.20;99.90;;;;;;5013182;28;20406;-70
2023/05/08 03:42:06;;;;;;;7.07;4.30;;;15.20;99.90;;;;;;5013153;28;20164;-70
2023/05/08 03:44:32;;;;;;;5.23;4.60;;;15.20;99.90;;;;;;5012565;28;20168;-70
2023/05/08 03:46:59;;;;;;;6.17;4.17;;;15.20;99.90;;;;;;5012704;28;20196;-70
2023/05/08 03:49:25;;;;;;;6.77;4.90;;;15.20;99.90;;;;;;5013165;28;20407;-70
2023/05/08 03:51:53;;;;;;;5.97;4.87;;;15.20;99.90;;;;;;5012863;28;20408;-70
2023/05/08 03:54:19;;;;;;;4.57;3.70;;;15.10;99.90;;;;;;5013114;28;20415;-70
2023/05/08 03:56:44;;;;;;;4.77;4.27;;;15.10;99.90;;;;;;5012714;28;20434;-70
2023/05/08 03:59:25;;;;;;;5.27;4.77;;;15.10;99.90;;;;;;5012547;28;20160;-70
2023/05/08 04:02:16;;;;;;;6.10;4.90;;;15.10;99.90;;;;;;5012678;28;20403;-70
2023/05/08 04:04:46;;;;;;;4.40;4.00;;;15.00;99.90;;;;;;5012574;28;20400;-70
2023/05/08 04:07:30;;;;;;;5.27;4.27;;;15.00;99.90;;;;;;5012127;28;20472;-70
2023/05/08 04:10:03;;;;;;;6.20;4.53;;;14.90;99.90;;;;;;5012404;28;20905;-70
2023/05/08 04:12:56;;;;;;;4.97;4.47;;;14.90;99.90;;;;;;5012528;28;20932;-72
2023/05/08 04:15:27;;;;;;;7.40;6.47;;;14.90;99.90;;;;;;5009275;28;20419;-70
2023/05/08 04:18:06;;;;;;;17.77;11.30;;;14.80;99.90;;;;;;5011879;28;20439;-70
2023/05/08 04:20:32;;;;;;;14.73;10.10;;;14.80;99.90;;;;;;5012439;28;20403;-70
2023/05/08 04:22:58;;;;;;;8.20;6.07;;;14.80;99.90;;;;;;5012845;28;20409;-73
2023/05/08 04:25:25;;;;;;;6.47;5.30;;;14.80;99.90;;;;;;5012063;28;20459;-70
2023/05/08 04:27:51;;;;;;;5.83;4.70;;;14.80;99.90;;;;;;5011869;28;20168;-70
2023/05/08 04:30:17;;;;;;;5.90;4.87;;;14.80;99.90;;;;;;5012278;28;20896;-72
2023/05/08 04:32:43;;;;;;;6.93;5.50;;;14.80;99.90;;;;;;5027569;28;20502;-72
2023/05/08 04:35:12;;;;;;;7.63;5.27;;;14.90;99.90;;;;;;5012286;28;20176;-70
2023/05/08 04:37:38;;;;;;;8.03;6.03;;;14.80;99.90;;;;;;5012019;28;20431;-70
2023/05/08 04:40:04;;;;;;;6.10;4.30;;;14.70;99.90;;;;;;5011475;28;20423;-70
2023/05/08 04:42:30;;;;;;;5.93;5.33;;;14.70;99.90;;;;;;5012187;28;20893;-70
2023/05/08 04:44:55;;;;;;;6.60;5.90;;;14.70;99.90;;;;;;5012025;28;20512;-70
2023/05/08 04:47:22;;;;;;;9.20;5.53;;;14.70;99.90;;;;;;5011535;28;20434;-72
2023/05/08 04:49:48;;;;;;;7.20;5.37;;;14.80;99.90;;;;;;5012230;28;20171;-73
2023/05/08 04:52:14;;;;;;;6.87;5.87;;;14.80;99.90;;;;;;5012264;28;21023;-72
2023/05/08 04:54:39;;;;;;;6.60;5.00;;;14.80;99.90;;;;;;5012196;28;20168;-70
2023/05/08 04:57:06;;;;;;;5.23;4.73;;;14.90;99.90;;;;;;5026927;28;20283;-70
2023/05/08 04:59:32;;;;;;;7.07;5.77;;;14.90;99.90;;;;;;5011897;28;20528;-70
2023/05/08 05:01:57;;;;;;;10.17;6.77;;;14.90;99.90;;;;;;5012040;28;20566;-70
2023/05/08 05:04:23;;;;;;;8.03;6.33;;;15.00;99.90;;;;;;5027250;28;20172;-70
2023/05/08 05:06:48;;;;;;;7.67;6.57;;;15.00;99.90;;;;;;5011643;28;20204;-71
2023/05/08 05:09:14;;;;;;;13.30;10.00;;;15.10;99.90;;;;;;5026701;28;20911;-73
2023/05/08 05:11:40;;;;;;;8.23;7.17;;;15.20;99.90;;;;;;5002919;28;20235;-71
2023/05/08 05:14:06;;;;;;;12.70;7.33;;;15.20;99.90;;;;;;4994678;28;20416;-70
2023/05/08 05:16:32;;;;;;;10.00;7.20;;;15.30;99.90;;;;;;4990919;28;20538;-71
2023/05/08 05:18:57;;;;;;;7.90;6.20;;;15.40;99.90;;;;;;4991958;28;20165;-71
2023/05/08 05:21:23;;;;;;;12.67;6.67;;;15.60;99.90;;;;;;4992232;28;20500;-71
2023/05/08 05:23:49;;;;;;;8.10;6.90;;;15.70;99.90;;;;;;4992262;28;20184;-71
2023/05/08 05:26:14;;;;;;;13.23;6.40;;;15.80;99.90;;;;;;4992139;28;20624;-71
2023/05/08 05:28:40;;;;;;;10.60;7.53;;;15.90;99.90;;;;;;4991952;28;20516;-70
2023/05/08 05:31:05;;;;;;;8.77;7.17;;;15.80;99.90;;;;;;4992197;28;20173;-70
2023/05/08 05:33:31;;;;;;;11.43;7.83;;;15.90;99.90;;;;;;4992259;28;20239;-71
2023/05/08 05:35:56;;;;;;;11.63;7.80;;;16.00;99.90;;;;;;4992333;28;20188;-71
2023/05/08 05:38:22;;;;;;;9.50;7.20;;;16.10;99.90;;;;;;4992018;28;20241;-70
2023/05/08 05:40:48;;;;;;;10.03;7.70;;;16.20;99.90;;;;;;4992158;28;20215;-71
2023/05/08 05:43:13;;;;;;;11.37;8.43;;;16.20;99.90;;;;;;4992078;28;20415;-71
2023/05/08 05:45:39;;;;;;;10.43;8.30;;;16.30;99.90;;;;;;4992000;28;20259;-71
2023/05/08 05:48:05;;;;;;;8.70;7.83;;;16.30;99.90;;;;;;4991857;28;20515;-71
2023/05/08 05:50:31;;;;;;;8.67;7.77;;;16.40;99.90;;;;;;4993443;28;20251;-70
2023/05/08 05:52:56;;;;;;;13.13;7.27;;;16.50;99.90;;;;;;4995684;28;20297;-71
2023/05/08 05:55:22;;;;;;;12.83;8.33;;;16.60;99.90;;;;;;4995646;28;20981;-71
2023/05/08 05:57:48;;;;;;;10.60;8.90;;;16.70;99.90;;;;;;4995345;28;20246;-69
2023/05/08 06:00:14;;;;;;;8.53;7.63;;;16.70;99.90;;;;;;4995503;28;20176;-67
2023/05/08 06:02:40;;;;;;;10.00;7.87;;;16.90;99.90;;;;;;4995385;28;20165;-67
2023/05/08 06:05:06;;;;;;;8.97;8.07;;;16.80;99.90;;;;;;4995299;28;20451;-66
2023/05/08 06:07:32;;;;;;;9.73;8.33;;;16.80;99.90;;;;;;4994954;28;20914;-68
2023/05/08 06:09:58;;;;;;;7.50;6.80;;;16.90;99.90;;;;;;4995307;28;20543;-66
2023/05/08 06:12:24;;;;;;;9.60;8.23;;;16.90;99.90;;;;;;4995143;28;20181;-67
2023/05/08 06:14:51;;;;;;;9.40;7.70;;;17.00;99.90;;;;;;4995242;28;20550;-66
2023/05/08 06:17:17;;;;;;;9.17;7.30;;;16.90;99.90;;;;;;4994553;28;20183;-68
2023/05/08 06:19:44;;;;;;;9.47;8.17;;;16.90;99.90;;;;;;4995193;28;20404;-67
2023/05/08 06:22:09;;;;;;;9.50;8.40;;;17.00;99.90;;;;;;4994992;28;20407;-67
2023/05/08 06:24:35;;;;;;;9.03;8.13;;;16.90;99.90;;;;;;4994973;28;20483;-68
2023/05/08 06:27:00;;;;;;;13.53;7.67;;;17.00;99.90;;;;;;4994625;28;20693;-68
2023/05/08 06:29:26;;;;;;;11.27;9.40;;;17.00;99.90;;;;;;4995045;28;20180;-67
2023/05/08 06:31:51;;;;;;;9.00;7.87;;;17.00;99.90;;;;;;4993667;28;20179;-67
2023/05/08 06:34:17;;;;;;;9.57;8.00;;;17.20;99.90;;;;;;4993651;28;20542;-68
2023/05/08 06:36:42;;;;;;;10.13;8.73;;;17.40;99.90;;;;;;4994765;28;20284;-67
2023/05/08 06:39:08;;;;;;;11.00;8.87;;;17.50;99.90;;;;;;4994478;28;20542;-68
2023/05/08 06:41:34;;;;;;;13.00;9.33;;;17.60;99.90;;;;;;4994730;28;20204;-68
2023/05/08 06:43:59;;;;;;;10.70;9.37;;;17.70;99.90;;;;;;4994663;28;20169;-67
2023/05/08 06:46:25;;;;;;;11.67;9.60;;;17.90;99.90;;;;;;4994424;28;20623;-67
2023/05/08 06:48:50;;;;;;;15.17;10.17;;;18.00;99.90;;;;;;4994292;28;20165;-66
2023/05/08 06:51:16;;;;;;;12.43;10.50;;;18.30;99.90;;;;;;4994498;28;20169;-67
2023/05/08 06:53:41;;;;;;;13.43;9.10;;;18.60;99.90;;;;;;4994419;28;20169;-67
2023/05/08 06:56:07;;;;;;;9.57;8.10;;;18.80;99.90;;;;;;4994399;28;20220;-67
2023/05/08 06:58:32;;;;;;;9.80;8.60;;;19.00;99.90;;;;;;4994035;28;20579;-68
2023/05/08 07:01:00;;;;;;;10.90;7.70;;;19.10;99.90;;;;;;4994311;28;20666;-68
2023/05/08 07:03:25;;;;;;;8.80;7.80;;;19.80;99.90;;;;;;4993049;28;20571;-71
2023/05/08 07:05:51;;;;;;;6.30;5.70;;;21.20;99.90;;;;;;5012718;28;20534;-70
2023/05/08 07:08:16;;;;;;;6.00;5.40;;;23.20;99.90;;;;;;5013296;28;20170;-70
2023/05/08 07:10:42;;;;;;;6.00;5.40;;;25.20;99.90;;;;;;5028497;28;20183;-70
2023/05/08 07:13:07;;;;;;;5.40;4.90;;;26.00;99.90;;;;;;5013566;28;20453;-70
2023/05/08 07:15:33;;;;;;;6.10;5.57;;;26.20;99.90;;;;;;5013362;28;20172;-70
2023/05/08 07:17:59;;;;;;;6.20;5.60;;;25.90;99.90;;;;;;5013314;28;20167;-72
2023/05/08 07:20:24;;;;;;;6.90;6.20;;;25.50;99.90;;;;;;5012360;28;20641;-71
2023/05/08 07:22:50;;;;;;;5.73;5.20;;;25.20;99.90;;;;;;5013545;28;20453;-70
2023/05/08 07:25:16;;;;;;;13.90;6.53;;;25.10;99.90;;;;;;5013390;28;20214;-70
2023/05/08 07:27:41;;;;;;;5.53;4.80;;;24.90;99.90;;;;;;5013025;28;20661;-69
2023/05/08 07:30:08;;;;;;;6.37;5.60;;;24.70;99.90;;;;;;5013364;28;20171;-69
2023/05/08 07:32:33;;;;;;;6.43;5.60;;;24.70;99.90;;;;;;5013399;28;20600;-69
2023/05/08 07:34:59;;;;;;;7.03;6.30;;;24.70;99.90;;;;;;5013243;28;20486;-69
2023/05/08 07:37:24;;;;;;;6.47;5.40;;;24.80;99.90;;;;;;5012744;28;20259;-70
2023/05/08 07:39:50;;;;;;;4.90;4.40;;;24.90;99.90;;;;;;5013289;28;20601;-70
2023/05/08 07:42:17;;;;;;;5.60;5.00;;;25.70;99.90;;;;;;5013616;28;20160;-70
2023/05/08 07:44:43;;;;;;;5.40;4.90;;;26.40;99.90;;;;;;5012811;28;20534;-70
2023/05/08 07:47:08;;;;;;;5.13;4.50;;;26.80;99.90;;;;;;5013030;28;20427;-68
2023/05/08 07:49:34;;;;;;;4.70;4.30;;;27.00;99.90;;;;;;5013034;28;20408;-69
2023/05/08 07:51:59;;;;;;;8.30;5.40;;;27.10;99.90;;;;;;5012794;28;20167;-69
2023/05/08 07:54:25;;;;;;;5.73;5.23;;;26.80;99.90;;;;;;5013041;28;20251;-69
2023/05/08 07:56:51;;;;;;;5.67;5.20;;;26.60;99.90;;;;;;5012732;28;20184;-68
2023/05/08 07:59:17;;;;;;;5.17;4.63;;;26.40;99.90;;;;;;5011645;28;20242;-69
2023/05/08 08:01:46;;;;;;;6.47;5.87;;;26.50;99.90;;;;;;5012890;28;20171;-69
2023/05/08 08:04:12;;;;;;;6.20;5.60;;;26.30;99.90;;;;;;5012820;28;20438;-69
2023/05/08 08:06:38;;;;;;;6.37;5.30;;;26.20;99.90;;;;;;5012544;28;20968;-69
2023/05/08 08:09:03;;;;;;;5.47;4.97;;;26.20;99.90;;;;;;5012682;28;20522;-69
2023/05/08 08:11:29;;;;;;;5.17;4.60;;;26.40;99.90;;;;;;5012519;28;20176;-68
2023/05/08 08:13:54;;;;;;;6.97;6.37;;;26.30;99.90;;;;;;5012607;28;20252;-68
2023/05/08 08:16:20;;;;;;;4.90;4.50;;;26.40;99.90;;;;;;5012583;28;20180;-69
2023/05/08 08:18:45;;;;;;;6.30;5.50;;;26.30;99.90;;;;;;5011889;28;20176;-69
2023/05/08 08:21:11;;;;;;;6.63;5.93;;;26.30;99.90;;;;;;5012304;28;20199;-69
2023/05/08 08:23:37;;;;;;;9.93;6.50;;;26.00;99.90;;;;;;5012307;28;20537;-70
2023/05/08 08:26:02;;;;;;;6.17;5.00;;;25.80;99.90;;;;;;5012288;28;20701;-69
2023/05/08 08:28:28;;;;;;;7.70;5.83;;;25.70;99.90;;;;;;5012056;28;20168;-68
2023/05/08 08:30:53;;;;;;;7.10;5.83;;;26.20;99.90;;;;;;5012497;28;20167;-68
2023/05/08 08:33:19;;;;;;;6.80;5.50;;;26.60;99.90;;;;;;5012114;28;20164;-70
2023/05/08 08:35:45;;;;;;;5.10;4.60;;;26.90;99.90;;;;;;5012225;28;20175;-69
2023/05/08 08:38:10;;;;;;;4.57;4.17;;;27.20;99.90;;;;;;5012020;28;20403;-69
2023/05/08 08:40:40;;;;;;;5.50;5.00;;;27.50;99.90;;;;;;5012256;28;20202;-68
2023/05/08 08:43:06;;;;;;;5.47;4.97;;;27.50;92.70;;;;;;5012349;28;20226;-69
2023/05/08 08:45:32;;;;;;;7.00;6.10;;;27.30;89.30;;;;;;5012125;28;20451;-68
2023/05/08 08:48:01;;;;;;;5.43;4.93;;;26.90;85.20;;;;;;5011949;28;20486;-69
2023/05/08 08:50:31;;;;;;;6.93;6.30;;;26.80;92.30;;;;;;5012154;28;20165;-68
2023/05/08 08:53:23;;;;;;;9.00;6.60;;;26.40;98.20;;;;;;5012275;28;20959;-69
2023/05/08 08:55:52;;;;;;;10.53;5.37;;;26.40;99.90;;;;;;5012166;28;20426;-68
2023/05/08 08:58:34;;;;;;;6.47;5.87;;;26.30;96.90;;;;;;5011951;28;20840;-68
2023/05/08 09:01:02;;;;;;;6.40;5.60;;;26.40;99.70;;;;;;5012014;28;20404;-68
2023/05/08 09:03:32;;;;;;;8.30;6.03;;;26.60;98.80;;;;;;5012317;28;20403;-68
2023/05/08 09:06:01;;;;;;;5.70;5.20;;;26.50;99.90;;;;;;5012010;28;20856;-68
2023/05/08 09:08:27;;;;;;;6.47;5.90;;;27.00;99.90;;;;;;5011815;28;20752;-68
2023/05/08 09:10:55;;;;;;;5.07;4.70;;;27.10;98.10;;;;;;5011881;28;20411;-69
2023/05/08 09:13:21;;;;;;;6.37;5.67;;;27.20;99.90;;;;;;5011958;28;20200;-68
2023/05/08 09:15:49;;;;;;;7.30;6.70;;;27.40;95.50;;;;;;5011849;28;20466;-68
2023/05/08 09:18:14;;;;;;;6.13;5.53;;;27.20;94.50;;;;;;5011692;28;20412;-69
2023/05/08 09:20:40;;;;;;;5.20;4.70;;;27.90;91.30;;;;;;5011928;28;20896;-68
2023/05/08 09:23:06;;;;;;;6.53;5.93;;;28.60;92.30;;;;;;5011893;28;20169;-69
2023/05/08 09:25:49;;;;;;;7.03;5.67;;;29.20;78.90;;;;;;5011864;28;20196;-69
2023/05/08 09:28:18;;;;;;;7.23;6.43;;;29.70;73.10;;;;;;5015446;28;20403;-69
2023/05/08 09:30:55;;;;;;;7.53;6.77;;;30.20;69.50;;;;;;5015667;28;20764;-70
2023/05/08 09:33:22;;;;;;;6.60;5.67;;;29.90;63.30;;;;;;5015736;28;20395;-68
2023/05/08 09:35:48;;;;;;;6.47;5.23;;;29.30;62.40;;;;;;5015464;28;20454;-70
2023/05/08 09:38:36;;;;;;;6.17;5.60;;;28.10;63.00;;;;;;5015193;28;20403;-68
2023/05/08 09:41:10;;;;;;;5.13;4.73;;;27.20;74.80;;;;;;5015667;28;20169;-68
2023/05/08 09:43:36;;;;;;;6.40;5.60;;;26.80;91.60;;;;;;5015430;28;20426;-70
2023/05/08 09:46:24;;;;;;;5.97;5.10;;;26.20;97.80;;;;;;5015246;28;20455;-70
2023/05/08 09:48:51;;;;;;;6.90;6.30;;;25.70;99.90;;;;;;5014941;28;20398;-68
2023/05/08 09:51:17;;;;;;;7.63;6.40;;;25.20;99.90;;;;;;5015278;28;20395;-68
2023/05/08 09:53:43;;;;;;;6.70;5.90;;;24.90;99.90;;;;;;5015326;28;20870;-69
2023/05/08 09:56:09;;;;;;;7.70;6.20;;;24.50;99.90;;;;;;5015076;28;20188;-69
2023/05/08 09:58:39;;;;;;;7.40;6.67;;;24.10;99.90;;;;;;5014908;28;20489;-69
2023/05/08 10:01:05;;;;;;;6.63;6.03;;;23.70;99.90;;;;;;5015075;28;20164;-69
2023/05/08 10:03:48;;;;;;;6.60;6.00;;;23.40;99.90;;;;;;5014961;28;20498;-68
2023/05/08 10:06:14;;;;;;;7.27;6.57;;;23.00;99.90;;;;;;5014921;28;20465;-68
2023/05/08 10:08:40;;;;;;;9.13;7.27;;;22.80;99.90;;;;;;5014639;28;20403;-68
2023/05/08 10:11:20;;;;;;;6.93;6.30;;;22.60;99.90;;;;;;5014790;28;20457;-68
2023/05/08 10:13:46;;;;;;;6.67;6.07;;;22.30;99.90;;;;;;5014843;28;20259;-68
2023/05/08 10:16:17;;;;;;;11.03;7.00;;;22.10;99.90;;;;;;5014790;28;20434;-68
2023/05/08 10:18:47;;;;;;;6.50;6.00;;;22.00;99.90;;;;;;5014247;28;20411;-68
2023/05/08 10:21:14;;;;;;;8.83;7.93;;;22.00;99.90;;;;;;5014791;28;20426;-69
2023/05/08 10:23:41;;;;;;;7.60;6.80;;;22.10;99.90;;;;;;5014607;28;20833;-69
2023/05/08 10:26:13;;;;;;;14.03;7.40;;;22.20;99.90;;;;;;5014387;28;20483;-68
2023/05/08 10:28:48;;;;;;;6.70;5.83;;;22.40;99.90;;;;;;5014156;28;20399;-68
2023/05/08 10:31:17;;;;;;;8.07;6.50;;;22.50;99.90;;;;;;5014605;28;20463;-67
2023/05/08 10:33:45;;;;;;;9.63;6.60;;;22.80;99.90;;;;;;5014443;28;20431;-69
2023/05/08 10:36:12;;;;;;;9.37;6.50;;;22.80;99.90;;;;;;5013900;28;20422;-67
2023/05/08 10:38:40;;;;;;;6.63;6.03;;;22.80;99.90;;;;;;5013334;28;20411;-68
2023/05/08 10:41:05;;;;;;;7.20;6.50;;;23.00;99.90;;;;;;5014370;28;20499;-68
2023/05/08 10:43:32;;;;;;;7.00;6.20;;;22.90;99.90;;;;;;5014271;28;21154;-68
2023/05/08 10:46:08;;;;;;;9.83;7.07;;;23.10;99.90;;;;;;5014064;28;20207;-68
2023/05/08 10:49:03;;;;;;;7.10;6.40;;;23.20;99.90;;;;;;5014028;28;20410;-69
2023/05/08 10:51:42;;;;;;;7.60;6.80;;;23.40;99.90;;;;;;5014031;28;20830;-68
2023/05/08 10:54:18;;;;;;;8.30;7.27;;;24.00;99.90;;;;;;5013590;28;20403;-69
2023/05/08 10:56:43;;;;;;;8.00;6.23;;;24.30;99.90;;;;;;5013934;28;20418;-69
2023/05/08 10:59:18;;;;;;;6.73;5.47;;;24.60;99.90;;;;;;5013678;28;20414;-68
2023/05/08 11:01:47;;;;;;;7.70;7.00;;;24.60;99.90;;;;;;5013801;28;20571;-68
2023/05/08 11:04:21;;;;;;;9.53;6.70;;;24.20;99.90;;;;;;5013865;28;20414;-68
2023/05/08 11:06:51;;;;;;;8.23;6.93;;;24.00;99.90;;;;;;5013541;28;20451;-69
2023/05/08 11:09:20;;;;;;;8.53;7.57;;;23.90;99.90;;;;;;5013748;28;20414;-68
2023/05/08 11:11:58;;;;;;;8.83;6.33;;;23.80;99.90;;;;;;5013532;28;20427;-67
2023/05/08 11:14:24;;;;;;;7.83;7.03;;;23.60;99.90;;;;;;5013717;28;20394;-69
2023/05/08 11:16:52;;;;;;;8.27;7.50;;;23.40;99.90;;;;;;5013314;28;20431;-68
2023/05/08 11:19:22;;;;;;;7.73;6.93;;;23.50;99.90;;;;;;5013545;28;20497;-68
2023/05/08 11:22:13;;;;;;;9.30;6.80;;;23.40;99.90;;;;;;5013522;28;20419;-68
2023/05/08 11:24:51;;;;;;;7.40;6.70;;;23.60;99.90;;;;;;5013337;28;20806;-68
2023/05/08 11:27:16;;;;;;;7.67;6.97;;;23.90;99.90;;;;;;5012914;28;20438;-68
2023/05/08 11:29:43;;;;;;;7.70;6.57;;;24.20;99.90;;;;;;5013388;28;20406;-68
2023/05/08 11:32:09;;;;;;;7.27;6.57;;;24.60;99.90;;;;;;5013381;28;20669;-68
2023/05/08 11:34:52;;;;;;;5.53;5.13;;;25.20;99.90;;;;;;5013272;28;20431;-68
2023/05/08 11:37:20;;;;;;;6.17;5.67;;;25.50;99.90;;;;;;5012969;28;20271;-68
2023/05/08 11:39:46;;;;;;;9.30;6.43;;;26.20;99.90;;;;;;5013185;28;20945;-69
2023/05/08 11:42:25;;;;;;;6.30;5.70;;;26.70;99.90;;;;;;5013220;28;20399;-68
2023/05/08 11:45:07;;;;;;;6.83;6.13;;;27.50;99.90;;;;;;5013089;28;20411;-68
2023/05/08 11:47:41;;;;;;;5.80;5.30;;;28.90;99.90;;;;;;5012625;28;20435;-68
2023/05/08 11:50:11;;;;;;;6.13;5.27;;;30.50;94.90;;;;;;5013048;28;20419;-68
2023/05/08 11:52:39;;;;;;;6.10;5.60;;;33.30;81.20;;;;;;5013225;28;20416;-69
2023/05/08 11:55:09;;;;;;;5.53;5.03;;;36.50;62.90;;;;;;5012723;28;20884;-69
2023/05/08 11:57:34;;;;;;;4.37;4.07;;;39.00;52.60;;;;;;5012683;28;20533;-69
2023/05/08 12:00:10;;;;;;;5.00;4.63;;;40.60;48.10;;;;;;5012704;28;20438;-69
2023/05/08 12:02:38;;;;;;;4.67;4.27;;;40.20;43.70;;;;;;5012905;28;20167;-70
2023/05/08 12:05:05;;;;;;;5.00;4.67;;;38.60;43.60;;;;;;5012636;28;20427;-70
2023/05/08 12:07:31;;;;;;;5.77;5.17;;;38.00;44.80;;;;;;5012432;28;20431;-70
2023/05/08 12:09:56;;;;;;;6.43;5.20;;;37.10;45.00;;;;;;5012628;28;20474;-69
2023/05/08 12:12:22;;;;;;;5.10;4.70;;;35.70;44.30;;;;;;5012505;28;20199;-69
2023/05/08 12:14:51;;;;;;;5.97;5.37;;;34.10;46.10;;;;;;5012378;28;20196;-69
2023/05/08 12:17:17;;;;;;;5.57;5.13;;;32.60;47.80;;;;;;5012289;28;20535;-70
2023/05/08 12:19:43;;;;;;;5.83;5.30;;;31.40;49.50;;;;;;5012517;28;20486;-69
2023/05/08 12:22:09;;;;;;;6.30;5.10;;;29.60;51.60;;;;;;5012488;28;20964;-68
2023/05/08 12:24:34;;;;;;;5.57;5.17;;;28.70;54.80;;;;;;5012525;28;20204;-68
2023/05/08 12:27:00;;;;;;;5.40;5.00;;;27.80;56.60;;;;;;5012006;28;20216;-70
2023/05/08 12:29:25;;;;;;;5.60;4.93;;;27.40;58.40;;;;;;5012412;28;20582;-68
2023/05/08 12:31:52;;;;;;;5.60;5.10;;;26.90;61.90;;;;;;5012601;28;20168;-68
2023/05/08 12:34:19;;;;;;;5.40;4.90;;;26.80;64.20;;;;;;5012380;28;20173;-68
2023/05/08 12:36:44;;;;;;;4.83;4.43;;;26.90;67.10;;;;;;5012201;28;20431;-68
2023/05/08 12:39:11;;;;;;;7.67;4.00;;;27.10;70.60;;;;;;5012051;28;20529;-69
2023/05/08 12:41:49;;;;;;;5.27;4.40;;;27.00;72.50;;;;;;5012252;28;20176;-69
2023/05/08 12:44:22;;;;;;;4.90;4.40;;;27.30;73.50;;;;;;5012252;28;20903;-69
2023/05/08 12:46:52;;;;;;;4.43;4.03;;;27.60;72.40;;;;;;5012042;28;20960;-69
2023/05/08 12:49:28;;;;;;;6.37;4.80;;;27.40;71.80;;;;;;5012178;28;20953;-68
2023/05/08 12:52:01;;;;;;;8.50;4.83;;;27.70;73.30;;;;;;5012158;28;20497;-69
2023/05/08 12:54:34;;;;;;;4.20;3.80;;;27.90;72.80;;;;;;5012197;28;20530;-69